BIENTÔT MET'MAP
version 2.0 !

Prévue avant fin octobre,
la nouvelle version sera
plus belle, plus complète
et hébergée sur un serveur
3 fois plus puissant...
et toujours gratuite !


Pas compatible ?
Essayez la version Mobile !

SE CONNECTER : | S'inscrire | Disclaimer | Découvrir Orbifly |
Code OACI :

TAF - LTBU Corlu - 27 May 2020 10:22 UTC - Data Source NOAA   


- Altitude de l'aérodrome : 574 ft
- Code IATA : TEQ
- Pas de NOTAMs connus.


LTBU - Corlu

Dernier METAR connu : 2015/08/11 07:50 LTBU 110750Z VRB02KT CAVOK 28/13 Q1011
TAF TAF LTBU
Valide du 27 à 06h jusqu'au 28 à 06h UTC


270440Z 2706/2806 03018KT 9999 SCT030 BKN100
BECMG 2712/2715 CAVOK
BECMG 2717/2720 32008KT

Source NOAA


MET'MAP, la Météo Aéronautique d'un coup d'oeil ! - Copyright ORBIFLY Décembre 2007

Développement & Programmation : Alexandra Zaïnal
Co-Développement : Marc-Olivier Méhu
Soutien technique & logistique : Manuel Goepfert
Conception & Financement : Baudouin d'Aumeries